Flight Track Log - Related Links

Times and Time Zones

All times are in EDT time to prevent confusion due to time zone crossing. See the QJE1799 flight status page for this flight to view local times or setup timezone preferences in your user account.

Time Position Orientation Groundspeed Altitude Reporting Facility
EDT Latitude Longitude Course Direction KTS MPH feet Rate Location/Type
Fri 10:54:00 PM -23.7927 133.8782 105° East 33,000  Level Aus ATC (Calculated)
Fri 10:54:34 PM -23.8142 133.9679 105° East 33,000 Level Aus ATC (Calculated)
Fri 10:55:00 PM -23.8142 133.9679 105° East 33,000 Level Aus ATC (Calculated)
Fri 10:55:49 PM -23.8570 134.1473 105° East 33,000 Level Aus ATC (Calculated)
Fri 10:56:00 PM -23.8471 134.1057 105° East  Level FlightAware Approximate
Fri 10:56:08 PM -23.8570 134.1473 105° East 33,000  Level Aus ATC (Calculated)
Fri 10:58:00 PM -23.9181 134.4049 105° East  Level FlightAware Approximate
Fri 10:58:00 PM -23.9209 134.4167 104° East 33,000  Level Aus ATC (Calculated)
Fri 10:58:46 PM -23.9421 134.5065 104° East 33,000 Level Aus ATC (Calculated)
Fri 10:59:10 PM -23.9421 134.5065 104° East 33,000 Level Aus ATC (Calculated)
Fri 10:59:49 PM -23.9632 134.5964 104° East 33,000 Level Aus ATC (Calculated)
Fri 11:00:48 PM -23.9843 134.6863 104° East 33,000 Level Aus ATC (Calculated)
Fri 11:01:00 PM -24.0026 134.7648 104° East  Level FlightAware Approximate
Fri 11:02:00 PM -24.0242 134.8571 104° East  Level FlightAware Approximate
Fri 11:03:00 PM -24.0573 134.9996 104° East  Level FlightAware Approximate
Fri 11:03:10 PM -24.0681 135.0463 104° East 33,000  Level Aus ATC (Calculated)
Fri 11:05:00 PM -24.1283 135.3076 104° East  Level FlightAware Approximate
Fri 11:05:08 PM -24.1097 135.2264 104° East 33,000  Level Aus ATC (Calculated)
Fri 11:06:00 PM -24.1510 135.4066 104° East 33,000 Level Aus ATC (Calculated)
Fri 11:07:00 PM -24.1836 135.5494 104° East  Level FlightAware Approximate
Fri 11:07:08 PM -24.1716 135.4968 104° East 33,000  Level Aus ATC (Calculated)
Fri 11:08:00 PM -24.2161 135.6921 104° East  Level FlightAware Approximate
Fri 11:09:00 PM -24.2322 135.7634 104° East  Level FlightAware Approximate
Fri 11:10:00 PM -24.2645 135.9062 104° East  Level FlightAware Approximate
Fri 11:11:00 PM -24.2966 136.0492 104° East  Level FlightAware Approximate
Fri 11:12:00 PM -24.3286 136.1923 104° East  Level FlightAware Approximate
Fri 11:13:00 PM -24.3604 136.3354 104° East  Level FlightAware Approximate
Fri 11:14:00 PM -24.3921 136.4785 104° East  Level FlightAware Approximate
Fri 11:15:00 PM -24.4237 136.6218 104° East  Level FlightAware Approximate
Fri 11:16:00 PM -24.4551 136.7651 104° East  Level FlightAware Approximate
Fri 11:16:13 PM -24.4346 136.6716 103° East 33,000  Level Aus ATC (Calculated)
Fri 11:18:00 PM -24.4679 136.8238 103° East  Level FlightAware Approximate
Fri 11:18:31 PM -24.5039 136.9894 103° East 33,000  Level Aus ATC (Calculated)
Fri 11:19:00 PM -24.5161 137.0462 103° East 33,000 Level Aus ATC (Calculated)
Fri 11:19:33 PM -24.5407 137.1599 103° East 33,000 Level Aus ATC (Calculated)
Fri 11:20:00 PM -24.5466 137.1877 103° East  Level FlightAware Approximate
Fri 11:21:00 PM -24.5847 137.3651 103° East  Level FlightAware Approximate
Fri 11:22:00 PM -24.6148 137.5067 103° East  Level FlightAware Approximate
Fri 11:22:33 PM -24.6378 137.6151 103° East 33,000  Level Aus ATC (Calculated)
Fri 11:23:00 PM -24.6449 137.6484 103° East  Level FlightAware Approximate
Fri 11:23:55 PM -24.6841 137.8341 103° East 33,000  Level Aus ATC (Calculated)
Fri 11:24:00 PM -24.6812 137.8206 103° East  Level FlightAware Approximate
Fri 11:24:35 PM -24.6954 137.8881 103° East 33,000  Level Aus ATC (Calculated)
Fri 11:24:35 PM -24.6954 137.8881 103° East 33,000 Level Aus ATC (Calculated)
Fri 11:25:00 PM -24.6797 137.8134 103° East  Level FlightAware Approximate
Fri 11:26:00 PM -24.7377 138.0906 103° East  Level FlightAware Approximate
Fri 11:27:00 PM -24.7674 138.2336 103° East  Level FlightAware Approximate
Fri 11:28:00 PM -24.7970 138.3767 103° East  Level FlightAware Approximate
Fri 11:29:00 PM -24.8265 138.5198 103° East  Level FlightAware Approximate
Fri 11:30:00 PM -24.8557 138.6630 103° East  Level FlightAware Approximate
Fri 11:31:00 PM -24.8849 138.8063 103° East  Level FlightAware Approximate
Fri 11:32:00 PM -24.9139 138.9496 103° East  Level FlightAware Approximate
Fri 11:33:00 PM -24.9428 139.0931 103° East  Level FlightAware Approximate
Fri 11:34:00 PM -24.9716 139.2366 102° East  Level FlightAware Approximate
Fri 11:35:00 PM -25.0002 139.3801 102° East  Level FlightAware Approximate
Fri 11:36:00 PM -25.0287 139.5237 102° East  Level FlightAware Approximate
Fri 11:37:00 PM -25.0570 139.6674 102° East  Level FlightAware Approximate
Fri 11:38:00 PM -25.0852 139.8112 102° East  Level FlightAware Approximate
Fri 11:39:00 PM -25.1133 139.9550 102° East  Level FlightAware Approximate
Fri 11:40:00 PM -25.1412 140.0988 102° East  Level FlightAware Approximate
Fri 11:41:00 PM -25.1690 140.2428 102° East  Level FlightAware Approximate
Fri 11:42:00 PM -25.1967 140.3868 102° East  Level FlightAware Approximate
Fri 11:42:09 PM -25.2274 140.5479 102° East 33,000  Level Aus ATC (Calculated)
Fri 11:43:18 PM -25.2687 140.7660 102° East 33,000 Level Aus ATC (Calculated)
Fri 11:45:00 PM -25.3185 141.0309 102° East  Level FlightAware Approximate
Fri 11:46:00 PM -25.3475 141.1868 102° East  Level FlightAware Approximate
Fri 11:46:00 PM -25.3403 141.1481 102° East 33,000  Level Aus ATC (Calculated)
Fri 11:46:36 PM -25.3611 141.2605 102° East 33,000 Level Aus ATC (Calculated)
Fri 11:47:00 PM -25.1964 141.1481 North  Level FlightAware Approximate
Fri 11:48:00 PM -25.3206 141.0422 282° West  Level FlightAware Approximate
Fri 11:49:00 PM -25.3540 141.1971 102° East  Level Estimated
Fri 11:50:00 PM -25.3826 141.3531 102° East  Level FlightAware Approximate
Fri 11:51:00 PM -25.4111 141.5092 101° East  Level FlightAware Approximate
Fri 11:52:00 PM -25.4394 141.6654 101° East  Level FlightAware Approximate
Fri 11:53:00 PM -25.4676 141.8217 101° East  Level FlightAware Approximate
Fri 11:54:00 PM -25.4955 141.9780 101° East  Level FlightAware Approximate
Fri 11:55:00 PM -25.5233 142.1345 101° East  Level FlightAware Approximate
Fri 11:56:00 PM -25.5510 142.2910 101° East  Level FlightAware Approximate
Fri 11:57:00 PM -25.5785 142.4475 101° East  Level FlightAware Approximate
Fri 11:58:00 PM -25.6058 142.6041 101° East  Level FlightAware Approximate
Fri 11:59:00 PM -25.6329 142.7608 101° East  Level FlightAware Approximate
Sat 12:00:00 AM -25.6599 142.9176 101° East  Level FlightAware Approximate
Sat 12:01:00 AM -25.6867 143.0745 101° East  Level FlightAware Approximate
Sat 12:02:00 AM -25.7134 143.2314 101° East  Level FlightAware Approximate
Sat 12:03:00 AM -25.7399 143.3884 101° East  Level FlightAware Approximate
Sat 12:04:00 AM -25.7662 143.5454 101° East  Level FlightAware Approximate
Sat 12:05:00 AM -25.7923 143.7026 101° East  Level FlightAware Approximate
Sat 12:06:00 AM -25.8183 143.8598 100° East  Level FlightAware Approximate
Sat 12:07:00 AM -25.8441 144.0170 100° East  Level FlightAware Approximate
Sat 12:08:00 AM -25.8697 144.1744 100° East  Level FlightAware Approximate
Sat 12:09:00 AM -25.8952 144.3318 100° East  Level FlightAware Approximate
Sat 12:09:00 AM -25.9370 144.5939 100° East 33,000  Level Aus ATC (Calculated)
Sat 12:10:00 AM -25.9622 144.7514 100° East  Level FlightAware Approximate
Sat 12:10:24 AM -25.9741 144.8267 100° East 33,000  Level Aus ATC (Calculated)
Sat 12:11:00 AM -25.9872 144.9090 100° East  Level FlightAware Approximate
Sat 12:12:00 AM -25.9956 144.9633 100° East  Level FlightAware Approximate
Sat 12:13:00 AM -26.0204 145.1210 100° East  Level FlightAware Approximate
Sat 12:14:00 AM -26.0449 145.2788 100° East  Level FlightAware Approximate
Sat 12:15:00 AM -26.0693 145.4366 100° East  Level FlightAware Approximate
Sat 12:15:30 AM -26.1004 145.6396 100° East 33,000  Level Aus ATC (Calculated)
Sat 12:17:00 AM -26.1363 145.8766 100° East  Level FlightAware Approximate
Sat 12:18:00 AM -26.1600 146.0347 100° East  Level FlightAware Approximate
Sat 12:19:00 AM -26.1835 146.1929 99° East  Level FlightAware Approximate
Sat 12:20:00 AM -26.2069 146.3511 99° East  Level FlightAware Approximate
Sat 12:21:00 AM -26.2301 146.5094 99° East  Level FlightAware Approximate
Sat 12:22:00 AM -26.2532 146.6677 99° East  Level FlightAware Approximate
Sat 12:23:00 AM -26.2760 146.8261 99° East  Level FlightAware Approximate
Sat 12:24:00 AM -26.2987 146.9846 99° East  Level FlightAware Approximate
Sat 12:24:32 AM -26.3036 147.0192 99° East 33,000  Level Aus ATC (Calculated)
Sat 12:25:16 AM -26.3214 147.1448 98° East 33,000 88 Level Aus ATC (Calculated)
Sat 12:26:49 AM -26.3499 147.3629 99° East 518 596 33,200 87 Climbing Aus ATC (RADAR)
Sat 12:27:34 AM -26.3669 147.4805 99° East 515 593 33,200  Level Aus ATC (RADAR)
Sat 12:27:59 AM -26.3746 147.5447 98° East 509 586 33,200  Level Aus ATC (RADAR)
Sat 12:28:39 AM -26.3923 147.6511 101° East 517 595 33,200  Level Aus ATC (RADAR)
Sat 12:29:34 AM -26.4108 147.7928 98° East 505 581 33,200  Level Aus ATC (RADAR)
Sat 12:29:59 AM -26.4196 147.8578 99° East 506 582 33,200 -100 Level Aus ATC (RADAR)
Sat 12:30:34 AM -26.4322 147.9491 99° East 510 587 33,100 -75 Descending Aus ATC (RADAR)
Sat 12:31:19 AM -26.4479 148.0662 99° East 508 585 33,100  Level Aus ATC (RADAR)
Sat 12:31:54 AM -26.4599 148.1575 98° East 508 585 33,100  Level Aus ATC (RADAR)
Sat 12:32:39 AM -26.4759 148.2747 99° East 506 582 33,100  Level Aus ATC (RADAR)
Sat 12:32:59 AM -26.4827 148.3270 98° East 509 586 33,100  Level Aus ATC (RADAR)
Sat 12:33:34 AM -26.4947 148.4174 98° East 505 581 33,100  Level Aus ATC (RADAR)
Sat 12:34:48 AM -26.5206 148.6129 98° East 507 583 33,100  Level Aus ATC (RADAR)
Sat 12:35:13 AM -26.5293 148.6781 99° East 507 583 33,100  Level Aus ATC (RADAR)
Sat 12:35:48 AM -26.5413 148.7691 98° East 508 585 33,100  Level Aus ATC (RADAR)
Sat 12:36:28 AM -26.5611 148.8705 102° East 499 574 33,100  Level Aus ATC (RADAR)
Sat 12:37:03 AM -26.5791 148.9597 103° East 501 577 33,100  Level Aus ATC (RADAR)
Sat 12:37:38 AM -26.5966 149.0485 102° East 500 575 33,100  Level Aus ATC (RADAR)
Sat 12:38:13 AM -26.6152 149.1375 103° East 501 577 33,100  Level Aus ATC (RADAR)
Sat 12:38:48 AM -26.6333 149.2265 103° East 502 578 33,100  Level Aus ATC (RADAR)
Sat 12:39:33 AM -26.6563 149.3400 103° East 497 572 33,100  Level Aus ATC (RADAR)
Sat 12:39:58 AM -26.6688 149.4012 103° East 488 562 33,100  Level Aus ATC (RADAR)
Sat 12:40:38 AM -26.6886 149.5018 102° East 493 567 33,100 71 Level Aus ATC (RADAR)
Sat 12:41:23 AM -26.7112 149.6154 103° East 497 572 33,200  Climbing Aus ATC (RADAR)
Sat 12:41:58 AM -26.7287 149.7031 103° East 494 568 33,100 -86 Descending Aus ATC (RADAR)
Sat 12:42:33 AM -26.7463 149.7914 103° East 495 570 33,100  Level Aus ATC (RADAR)
Sat 12:43:03 AM -26.7615 149.8674 103° East 497 572 33,100  Level Aus ATC (RADAR)
Sat 12:43:37 AM -26.7790 149.9559 103° East 497 572 33,100  Level Aus ATC (RADAR)
Sat 12:44:27 AM -26.8036 150.0817 102° East 494 568 33,100  Level Aus ATC (RADAR)
Sat 12:44:52 AM -26.8158 150.1448 102° East 495 570 33,100  Level Aus ATC (RADAR)
Sat 12:45:27 AM -26.8331 150.2330 102° East 494 568 33,100  Level Aus ATC (RADAR)
Sat 12:46:07 AM -26.8529 150.3345 102° East 497 572 33,100  Level Aus ATC (RADAR)
Sat 12:46:42 AM -26.8699 150.4236 102° East 499 574 33,100  Level Aus ATC (RADAR)
Sat 12:47:17 AM -26.8869 150.5114 102° East 493 567 33,100  Level Aus ATC (RADAR)
Sat 12:47:47 AM -26.9015 150.5843 103° East 478 550 33,100 -185 Level Aus ATC (RADAR)
Sat 12:48:22 AM -26.9173 150.6679 102° East 466 536 32,900 -429 Descending Aus ATC (RADAR)
Sat 12:48:57 AM -26.9327 150.7493 102° East 452 520 32,600 -635 Descending Aus ATC (RADAR)
Sat 12:49:47 AM -26.9548 150.8632 102° East 442 509 32,000 -720 Descending Aus ATC (RADAR)
Sat 12:50:12 AM -26.9654 150.9200 102° East 441 507 31,700 -600 Descending Aus ATC (RADAR)
Sat 12:50:47 AM -26.9800 150.9995 102° East 441 507 31,400 -600 Descending Aus ATC (RADAR)
Sat 12:51:32 AM -26.9996 151.1014 102° East 443 510 30,900 -525 Descending Aus ATC (RADAR)
Sat 12:52:07 AM -27.0147 151.1804 102° East 439 505 30,700 -435 Descending Aus ATC (RADAR)
Sat 12:52:41 AM -27.0303 151.2592 103° East 440 506 30,400 -563 Descending Aus ATC (RADAR)
Sat 12:53:11 AM -27.0435 151.3255 103° East 433 498 30,100 -462 Descending Aus ATC (RADAR)
Sat 12:53:46 AM -27.0586 151.4030 102° East 430 495 29,900 -505 Descending Aus ATC (RADAR)
Sat 12:54:46 AM -27.0847 151.5332 103° East 424 488 29,300 -565 Descending Aus ATC (RADAR)
Sat 12:55:11 AM -27.0958 151.5876 103° East 425 489 29,100 -436 Descending Aus ATC (RADAR)
Sat 12:55:41 AM -27.1086 151.6525 103° East 424 488 28,900 -480 Descending Aus ATC (RADAR)
Sat 12:56:26 AM -27.1280 151.7491 103° East 418 481 28,500 -525 Descending Aus ATC (RADAR)
Sat 12:57:01 AM -27.1431 151.8241 103° East 415 478 28,200 -514 Descending Aus ATC (RADAR)
Sat 12:57:36 AM -27.1575 151.8987 102° East 412 474 27,900 -514 Descending Aus ATC (RADAR)
Sat 12:58:11 AM -27.1724 151.9721 103° East 405 466 27,600 -514 Descending Aus ATC (RADAR)
Sat 12:58:46 AM -27.1876 152.0451 103° East 405 466 27,300 -494 Descending Aus ATC (RADAR)
Sat 12:59:36 AM -27.2086 152.1487 103° East 402 463 26,900 -514 Descending Aus ATC (RADAR)
Sat 12:59:56 AM -27.2177 152.1896 104° East 400 460 26,700 -480 Descending Aus ATC (RADAR)
Sat 01:00:26 AM -27.2307 152.2511 103° East 397 457 26,500 -462 Descending Aus ATC (RADAR)
Sat 01:01:01 AM -27.2460 152.3229 104° East 397 457 26,200 -750 Descending Aus ATC (RADAR)
Sat 01:01:46 AM -27.2849 152.4025 119° Southeast 389 448 25,500 -1,200 Descending Aus ATC (RADAR)
Sat 01:02:21 AM -27.3416 152.4140 170° South 344 396 24,600 -1,385 Descending Aus ATC (RADAR)
Sat 01:02:51 AM -27.3887 152.4103 184° South 341 392 24,000 -1,200 Descending Aus ATC (RADAR)
Sat 01:03:26 AM -27.4443 152.4049 185° South 343 395 23,300 -1,114 Descending Aus ATC (RADAR)
Sat 01:04:01 AM -27.4991 152.3995 185° South 340 391 22,700 -1,079 Descending Aus ATC (RADAR)
Sat 01:04:55 AM -27.5856 152.3915 185° South 341 392 21,700 -1,063 Descending Aus ATC (RADAR)
Sat 01:05:20 AM -27.6235 152.3883 184° South 332 382 21,300 -900 Descending Aus ATC (RADAR)
Sat 01:05:55 AM -27.6770 152.3835 185° South 330 380 20,800 -825 Descending Aus ATC (RADAR)
Sat 01:06:40 AM -27.7443 152.4008 167° South 351 404 20,200 -675 Descending Aus ATC (RADAR)
Sat 01:07:15 AM -27.7734 152.4590 119° Southeast 366 421 19,900 -514 Descending Aus ATC (RADAR)
Sat 01:07:50 AM -27.7563 152.5256 74° East 362 417 19,600 -554 Descending Aus ATC (RADAR)
Sat 01:08:20 AM -27.7236 152.5735 52° Northeast 373 429 19,300 -831 Descending Aus ATC (RADAR)
Sat 01:08:55 AM -27.6896 152.6294 56° Northeast 370 426 18,700 -1,412 Descending Aus ATC (RADAR)
Sat 01:09:45 AM -27.6451 152.7108 58° Northeast 363 418 17,300 -1,624 Descending Aus ATC (RADAR)
Sat 01:10:20 AM -27.6292 152.7738 74° East 357 411 16,400 -1,520 Descending Aus ATC (RADAR)
Sat 01:11:00 AM -27.6136 152.8442 76° East 343 395 15,400 -1,553 Descending Aus ATC (RADAR)
Sat 01:11:45 AM -27.5963 152.9215 76° East 333 383 14,200 -1,543 Descending Aus ATC (RADAR)
Sat 01:12:10 AM -27.5872 152.9635 76° East 325 374 13,600 -1,400 Descending Aus ATC (RADAR)
Sat 01:12:45 AM -27.5751 153.0208 77° East 317 365 12,800 -1,500 Descending Aus ATC (RADAR)
Sat 01:13:30 AM -27.5596 153.0955 77° East 318 366 11,600 -1,541 Descending Aus ATC (RADAR)
Sat 01:13:59 AM -27.5488 153.1441 76° East 316 364 10,900 -1,551 Descending Aus ATC (RADAR)
Sat 01:14:59 AM -27.4785 153.2031 37° Northeast 314 361 9,300 -1,650 Descending Aus ATC (RADAR)
Sat 01:15:19 AM -27.4536 153.2192 30° Northeast 311 358 8,700 -1,600 Descending Aus ATC (RADAR)
Sat 01:15:44 AM -27.4224 153.2393 30° Northeast 310 357 8,100 -1,477 Descending Aus ATC (RADAR)
Sat 01:16:24 AM -27.3735 153.2710 30° Northeast 303 349 7,100 -1,482 Descending Aus ATC (RADAR)
Sat 01:17:09 AM -27.3205 153.3058 30° Northeast 291 335 6,000 -1,350 Descending Aus ATC (RADAR)
Sat 01:17:44 AM -27.2822 153.3307 30° Northeast 274 315 5,300 -1,114 Descending Aus ATC (RADAR)
Sat 01:18:19 AM -27.2403 153.3187 346° North 269 310 4,700 -923 Descending Aus ATC (RADAR)
Sat 01:18:49 AM -27.2135 153.2913 318° Northwest 257 296 4,300 -831 Descending Aus ATC (RADAR)
Sat 01:19:24 AM -27.2103 153.2510 275° West 220 253 3,800 -933 Descending Aus ATC (RADAR)
Sat 01:20:19 AM -27.2361 153.2135 232° Southwest 178 205 2,900 -943 Descending Aus ATC (RADAR)
Sat 01:20:34 AM -27.2462 153.2079 206° Southwest 170 196 2,700 -600 Descending Aus ATC (RADAR)
Sat 01:21:09 AM -27.2686 153.1957 206° Southwest 155 178 2,400 -776 Descending Aus ATC (RADAR)
Sat 01:21:59 AM -27.3015 153.1767 207° Southwest 161 185 1,600 -918 Descending Aus ATC (RADAR)
Sat 01:22:34 AM -27.3239 153.1644 206° Southwest 155 178 1,100 -750 Descending Aus ATC (RADAR)
Sat 01:23:19 AM -27.3491 153.1500 207° Southwest 138 159 600 -686 Descending Aus ATC (RADAR)
Sat 01:23:44 AM -27.3631 153.1421 207° Southwest 136 157 300 -720 Descending Aus ATC (RADAR)

Login

Don't have an account? Register now (free) for customized features, flight alerts, and more!